createdAt,value
2023-01-09T00:00:47.056Z,7.53
2023-01-09T00:03:14.289Z,7.45
2023-01-09T00:05:41.425Z,7.38
2023-01-09T00:08:14.986Z,7.30
2023-01-09T00:10:42.226Z,8.45
2023-01-09T00:13:19.127Z,7.90
2023-01-09T00:15:46.303Z,6.80
2023-01-09T00:18:13.419Z,6.70
2023-01-09T00:20:47.068Z,6.97
2023-01-09T00:23:14.309Z,7.13
2023-01-09T00:25:47.939Z,6.15
2023-01-09T00:28:15.329Z,7.90
2023-01-09T00:30:42.454Z,8.82
2023-01-09T00:33:17.234Z,9.07
2023-01-09T00:35:44.482Z,7.18
2023-01-09T00:38:11.552Z,7.38
2023-01-09T00:40:45.018Z,7.60
2023-01-09T00:43:12.192Z,7.32
2023-01-09T00:45:46.066Z,8.23
2023-01-09T00:48:17.067Z,6.93
2023-01-09T00:50:50.971Z,7.38
2023-01-09T00:53:19.591Z,10.02
2023-01-09T00:55:53.137Z,9.68
2023-01-09T00:58:20.329Z,10.13
2023-01-09T01:00:47.540Z,9.63
2023-01-09T01:03:21.079Z,9.18
2023-01-09T01:06:07.126Z,9.23
2023-01-09T01:08:40.979Z,10.23
2023-01-09T01:11:10.122Z,8.45
2023-01-09T01:13:45.111Z,8.30
2023-01-09T01:16:20.025Z,9.45
2023-01-09T01:18:54.134Z,9.88
2023-01-09T01:21:21.311Z,8.35
2023-01-09T01:23:48.402Z,8.27
2023-01-09T01:26:23.016Z,8.73
2023-01-09T01:28:50.268Z,9.60
2023-01-09T01:31:25.153Z,9.35
2023-01-09T01:33:52.429Z,9.40
2023-01-09T01:36:19.584Z,9.30
2023-01-09T01:38:53.013Z,9.20
2023-01-09T01:41:29.571Z,8.63
2023-01-09T01:44:03.022Z,8.75
2023-01-09T01:46:30.987Z,8.60
2023-01-09T01:49:19.987Z,7.70
2023-01-09T01:51:50.772Z,7.25
2023-01-09T01:54:31.004Z,8.77
2023-01-09T01:57:02.293Z,7.82
2023-01-09T01:59:39.261Z,8.43
2023-01-09T02:02:06.635Z,7.72
2023-01-09T02:04:34.856Z,10.30
2023-01-09T02:07:10.140Z,9.38
2023-01-09T02:09:38.303Z,9.90
2023-01-09T02:12:25.021Z,11.52
2023-01-09T02:15:07.932Z,10.45
2023-01-09T02:17:59.992Z,9.30
2023-01-09T02:20:33.963Z,10.07
2023-01-09T02:23:19.663Z,9.80
2023-01-09T02:26:08.936Z,9.90
2023-01-09T02:28:36.133Z,11.27
2023-01-09T02:31:16.020Z,10.95
2023-01-09T02:33:43.382Z,10.40
2023-01-09T02:36:34.942Z,10.48
2023-01-09T02:39:20.691Z,11.60
2023-01-09T02:42:06.957Z,11.63
2023-01-09T02:44:36.281Z,12.05
2023-01-09T02:47:15.007Z,11.40
2023-01-09T02:49:43.700Z,10.93
2023-01-09T02:52:10.931Z,11.70
2023-01-09T02:54:48.019Z,10.48
2023-01-09T02:57:22.674Z,11.38
2023-01-09T03:00:12.034Z,10.18
2023-01-09T03:02:48.761Z,11.48
2023-01-09T03:05:37.099Z,11.93
2023-01-09T03:08:24.441Z,12.63
2023-01-09T03:11:07.011Z,10.35
2023-01-09T03:13:43.021Z,13.88
2023-01-09T03:16:19.190Z,13.02
2023-01-09T03:18:48.897Z,12.25
2023-01-09T03:21:17.046Z,14.05
2023-01-09T03:23:55.022Z,13.35
2023-01-09T03:26:22.581Z,15.07
2023-01-09T03:31:23.350Z,14.23
2023-01-09T03:33:56.990Z,15.35
2023-01-09T03:36:24.638Z,14.70
2023-01-09T03:41:26.065Z,13.63
2023-01-09T03:43:53.228Z,14.25
2023-01-09T03:46:27.000Z,13.68
2023-01-09T03:48:54.424Z,12.77
2023-01-09T03:51:21.517Z,15.77
2023-01-09T03:53:54.961Z,15.05
2023-01-09T03:56:22.220Z,14.13
2023-01-09T03:58:56.984Z,15.65
2023-01-09T04:01:24.309Z,15.57
2023-01-09T04:03:51.545Z,13.98
2023-01-09T04:06:24.981Z,15.63
2023-01-09T04:08:52.566Z,15.43
2023-01-09T04:13:56.034Z,16.45
2023-01-09T04:16:30.066Z,15.40
2023-01-09T04:19:04.096Z,16.10
2023-01-09T04:21:31.288Z,16.10
2023-01-09T04:23:58.390Z,15.38
2023-01-09T04:26:32.021Z,15.90
2023-01-09T04:29:00.475Z,16.80
2023-01-09T04:31:34.121Z,16.33
2023-01-09T04:34:01.362Z,16.10
2023-01-09T04:36:28.500Z,16.58
2023-01-09T04:39:02.015Z,16.80
2023-01-09T04:41:47.991Z,17.92
2023-01-09T04:44:22.089Z,16.50
2023-01-09T04:46:49.511Z,16.88
2023-01-09T04:49:16.724Z,16.48
2023-01-09T04:51:50.149Z,17.08
2023-01-09T04:54:17.675Z,16.00
2023-01-09T04:56:58.090Z,15.25
2023-01-09T04:59:32.070Z,13.82
2023-01-09T05:02:06.453Z,16.08
2023-01-09T05:04:33.886Z,14.95
2023-01-09T05:07:01.118Z,9.13
2023-01-09T05:09:35.033Z,13.00
2023-01-09T05:12:02.335Z,12.00
2023-01-09T05:14:42.149Z,10.85
2023-01-09T05:17:09.457Z,12.82
2023-01-09T05:19:36.631Z,10.27
2023-01-09T05:22:10.068Z,11.50
2023-01-09T05:24:37.253Z,11.68
2023-01-09T05:27:11.002Z,12.07
2023-01-09T05:29:38.152Z,12.65
2023-01-09T05:32:05.392Z,10.88
2023-01-09T05:34:38.999Z,10.77
2023-01-09T05:37:06.577Z,9.20
2023-01-09T05:39:40.050Z,9.10
2023-01-09T05:42:07.652Z,10.23
2023-01-09T05:44:34.773Z,10.32
2023-01-09T05:47:08.000Z,9.77
2023-01-09T05:49:35.683Z,8.23
2023-01-09T05:52:09.158Z,9.95
2023-01-09T05:54:36.343Z,9.73
2023-01-09T05:57:03.519Z,8.57
2023-01-09T05:59:37.159Z,10.43
2023-01-09T06:02:04.440Z,9.10
2023-01-09T06:04:38.030Z,9.27
2023-01-09T06:07:05.404Z,10.40
2023-01-09T06:09:32.712Z,9.85
2023-01-09T06:12:06.013Z,8.73
2023-01-09T06:14:40.121Z,10.65
2023-01-09T06:17:14.031Z,9.20
2023-01-09T06:19:41.350Z,10.32
2023-01-09T06:22:08.543Z,11.02
2023-01-09T06:24:42.009Z,10.57
2023-01-09T06:27:09.313Z,9.82
2023-01-09T06:29:43.023Z,9.57
2023-01-09T06:32:10.377Z,10.38
2023-01-09T06:34:37.461Z,10.60
2023-01-09T06:37:11.015Z,10.93
2023-01-09T06:39:38.468Z,7.78
2023-01-09T06:42:05.621Z,10.35
2023-01-09T06:44:40.083Z,10.57
2023-01-09T06:47:07.630Z,8.18
2023-01-09T06:52:08.565Z,7.53
2023-01-09T06:54:36.087Z,7.93
2023-01-09T06:59:37.350Z,8.70
2023-01-09T07:02:11.340Z,9.50
2023-01-09T07:04:38.971Z,8.38
2023-01-09T07:09:40.202Z,8.23
2023-01-09T07:12:07.641Z,7.90
2023-01-09T07:14:48.099Z,8.55
2023-01-09T07:17:22.069Z,7.85
2023-01-09T07:19:56.219Z,8.20
2023-01-09T07:22:23.478Z,8.00
2023-01-09T07:24:50.599Z,7.82
2023-01-09T07:27:24.066Z,9.45
2023-01-09T07:29:53.380Z,6.85
2023-01-09T07:32:27.236Z,8.55
2023-01-09T07:34:54.412Z,8.50
2023-01-09T07:37:21.552Z,8.98
2023-01-09T07:39:55.086Z,9.05
2023-01-09T07:42:22.286Z,8.40
2023-01-09T07:44:56.131Z,8.73
2023-01-09T07:47:23.265Z,6.80
2023-01-09T07:49:50.357Z,8.95
2023-01-09T07:52:24.115Z,8.60
2023-01-09T07:54:51.305Z,7.57
2023-01-09T07:57:25.075Z,7.63
2023-01-09T07:59:52.477Z,8.63
2023-01-09T08:02:19.664Z,7.47
2023-01-09T08:04:53.014Z,8.45
2023-01-09T08:07:20.281Z,8.45
2023-01-09T08:09:54.075Z,9.10
2023-01-09T08:12:21.190Z,7.03
2023-01-09T08:15:02.333Z,8.73
2023-01-09T08:17:29.414Z,8.15
2023-01-09T08:19:56.611Z,8.27
2023-01-09T08:22:30.100Z,8.63
2023-01-09T08:24:57.256Z,9.32
2023-01-09T08:27:31.188Z,9.10
2023-01-09T08:29:58.429Z,6.97
2023-01-09T08:32:25.661Z,6.35
2023-01-09T08:34:59.204Z,7.95
2023-01-09T08:37:26.392Z,6.53
2023-01-09T08:40:00.153Z,7.15
2023-01-09T08:42:45.979Z,8.25
2023-01-09T08:45:39.148Z,8.80
2023-01-09T08:48:06.521Z,7.88
2023-01-09T08:50:40.347Z,8.25
2023-01-09T08:53:07.679Z,7.75
2023-01-09T08:55:34.889Z,9.25
2023-01-09T08:58:09.267Z,9.82
2023-01-09T09:00:36.707Z,10.02
2023-01-09T09:03:10.351Z,8.93
2023-01-09T09:05:37.568Z,8.60
2023-01-09T09:08:11.229Z,9.38
2023-01-09T09:10:38.416Z,10.48
2023-01-09T09:13:05.575Z,8.20
2023-01-09T09:15:46.339Z,8.85
2023-01-09T09:18:13.542Z,8.55
2023-01-09T09:20:47.039Z,9.20
2023-01-09T09:23:14.388Z,9.65
2023-01-09T09:25:48.051Z,9.30
2023-01-09T09:28:15.140Z,9.02
2023-01-09T09:30:42.872Z,8.52
2023-01-09T09:33:17.072Z,7.70
2023-01-09T09:35:44.345Z,8.93
2023-01-09T09:38:18.060Z,8.20
2023-01-09T09:40:48.204Z,7.75
2023-01-09T09:43:54.049Z,8.65
2023-01-09T09:46:36.206Z,7.85
2023-01-09T09:49:14.040Z,6.90
2023-01-09T09:51:52.100Z,8.63
2023-01-09T09:54:28.056Z,7.90
2023-01-09T09:57:04.106Z,7.25
2023-01-09T09:59:40.100Z,8.10
2023-01-09T10:02:10.192Z,6.95
2023-01-09T10:04:50.334Z,7.65
2023-01-09T10:07:26.856Z,8.43
2023-01-09T10:10:02.100Z,8.95
2023-01-09T10:12:38.647Z,8.55
2023-01-09T10:15:23.066Z,4.88
2023-01-09T10:18:08.862Z,4.93
2023-01-09T10:20:49.092Z,7.60
2023-01-09T10:23:28.431Z,6.85
2023-01-09T10:26:09.109Z,6.90
2023-01-09T10:28:48.385Z,7.72
2023-01-09T10:31:30.294Z,6.28
2023-01-09T10:34:09.817Z,5.95
2023-01-09T10:36:56.212Z,5.18
2023-01-09T10:39:35.323Z,5.10
2023-01-09T10:42:18.063Z,7.20
2023-01-09T10:44:58.102Z,5.93
2023-01-09T10:47:35.110Z,6.53
2023-01-09T10:50:20.931Z,5.75
2023-01-09T10:52:56.090Z,6.10
2023-01-09T10:55:28.109Z,5.50
2023-01-09T10:58:04.237Z,6.45
2023-01-09T11:00:31.550Z,5.93
2023-01-09T11:02:58.811Z,6.28
2023-01-09T11:05:34.171Z,4.88
2023-01-09T11:08:14.652Z,4.55
2023-01-09T11:10:56.135Z,6.07
2023-01-09T11:13:32.477Z,6.28
2023-01-09T11:16:12.153Z,5.35
2023-01-09T11:18:40.608Z,4.65
2023-01-09T11:21:21.160Z,6.13
2023-01-09T11:23:50.007Z,5.80
2023-01-09T11:26:34.221Z,5.63
2023-01-09T11:29:08.523Z,6.70
2023-01-09T11:31:42.208Z,4.80
2023-01-09T11:34:19.420Z,4.78
2023-01-09T11:36:54.279Z,5.60
2023-01-09T11:39:24.846Z,6.82
2023-01-09T11:42:03.382Z,5.53
2023-01-09T11:44:31.427Z,5.63
2023-01-09T11:46:58.575Z,5.88
2023-01-09T11:49:41.228Z,4.47
2023-01-09T11:52:14.974Z,4.03
2023-01-09T11:54:59.125Z,4.97
2023-01-09T11:57:26.684Z,4.50
2023-01-09T12:02:48.322Z,5.28
2023-01-09T12:05:30.119Z,4.80
2023-01-09T12:08:00.298Z,5.05
2023-01-09T12:10:44.238Z,6.40
2023-01-09T12:13:20.645Z,5.55
2023-01-09T12:16:17.335Z,5.22
2023-01-09T12:19:10.334Z,4.32
2023-01-09T12:21:49.097Z,5.30
2023-01-09T12:24:32.164Z,4.70
2023-01-09T12:27:08.653Z,5.13
2023-01-09T12:29:48.292Z,4.43
2023-01-09T12:32:21.740Z,4.88
2023-01-09T12:35:18.206Z,5.85
2023-01-09T12:38:02.419Z,5.03
2023-01-09T12:40:39.275Z,5.50
2023-01-09T12:43:13.909Z,6.03
2023-01-09T12:46:02.340Z,4.95
2023-01-09T12:48:41.091Z,4.10
2023-01-09T12:51:20.284Z,3.53
2023-01-09T12:54:02.966Z,4.70
2023-01-09T12:56:42.198Z,4.20
2023-01-09T12:59:30.000Z,5.50
2023-01-09T13:02:16.384Z,3.97
2023-01-09T13:04:48.510Z,6.22
2023-01-09T13:07:27.544Z,5.50
2023-01-09T13:10:00.422Z,5.82
2023-01-09T13:12:35.305Z,5.72
2023-01-09T13:15:29.486Z,5.75
2023-01-09T13:18:07.515Z,4.90
2023-01-09T13:20:43.130Z,5.00
2023-01-09T13:23:20.298Z,6.28
2023-01-09T13:25:59.104Z,5.57
2023-01-09T13:28:38.250Z,4.97
2023-01-09T13:31:21.241Z,5.30
2023-01-09T13:33:56.413Z,4.85
2023-01-09T13:36:32.156Z,5.30
2023-01-09T13:39:00.410Z,5.53
2023-01-09T13:42:18.140Z,5.70
2023-01-09T13:47:30.113Z,5.40
2023-01-09T13:50:02.204Z,5.82
2023-01-09T13:52:52.100Z,5.90
2023-01-09T13:55:24.275Z,5.78
2023-01-09T13:58:21.114Z,4.97
2023-01-09T14:00:48.923Z,5.70
2023-01-09T14:03:45.100Z,6.18
2023-01-09T14:06:13.429Z,5.30
2023-01-09T14:08:48.158Z,5.18
2023-01-09T14:11:19.947Z,5.63
2023-01-09T14:14:06.628Z,5.75
2023-01-09T14:16:40.417Z,5.93
2023-01-09T14:19:24.159Z,8.60
2023-01-09T14:21:55.993Z,6.65
2023-01-09T14:24:36.211Z,5.97
2023-01-09T14:27:03.579Z,6.00
2023-01-09T14:29:43.129Z,6.63
2023-01-09T14:32:29.220Z,7.15
2023-01-09T14:35:03.788Z,6.57
2023-01-09T14:37:40.724Z,6.07
2023-01-09T14:40:15.154Z,6.90
2023-01-09T14:42:42.719Z,7.20
2023-01-09T14:47:47.276Z,6.78
2023-01-09T14:50:36.803Z,6.90
2023-01-09T14:53:29.281Z,7.47
2023-01-09T14:55:58.043Z,7.15
2023-01-09T14:58:36.212Z,7.75
2023-01-09T15:01:16.833Z,8.30
2023-01-09T15:03:59.246Z,7.80
2023-01-09T15:06:35.123Z,7.45
2023-01-09T15:09:09.276Z,8.10
2023-01-09T15:11:46.127Z,8.43
2023-01-09T15:14:34.414Z,8.85
2023-01-09T15:17:23.176Z,8.35
2023-01-09T15:22:36.282Z,9.02
2023-01-09T15:25:27.288Z,10.40
2023-01-09T15:28:04.266Z,10.52
2023-01-09T15:30:36.036Z,12.50
2023-01-09T15:33:11.147Z,11.63
2023-01-09T15:35:52.211Z,6.07
2023-01-09T15:38:42.140Z,4.70
2023-01-09T15:41:10.801Z,4.15
2023-01-09T15:43:48.123Z,3.30
2023-01-09T15:46:16.653Z,3.40
2023-01-09T15:48:50.156Z,2.67
2023-01-09T15:51:18.616Z,2.50
2023-01-09T15:53:47.064Z,2.50
2023-01-09T15:56:23.300Z,2.13
2023-01-09T15:58:50.867Z,2.30
2023-01-09T16:03:51.564Z,2.10
2023-01-09T16:06:22.635Z,2.50
2023-01-09T16:08:59.281Z,2.40
2023-01-09T16:11:31.787Z,2.67
2023-01-09T16:14:23.315Z,2.28
2023-01-09T16:17:02.308Z,2.33
2023-01-09T16:19:38.202Z,2.50
2023-01-09T16:22:05.595Z,2.40
2023-01-09T16:24:46.303Z,1.95
2023-01-09T16:27:24.065Z,2.33
2023-01-09T16:30:01.323Z,1.95
2023-01-09T16:32:32.806Z,1.83
2023-01-09T16:35:09.196Z,2.00
2023-01-09T16:37:37.423Z,1.90
2023-01-09T16:40:23.226Z,1.80
2023-01-09T16:43:00.872Z,1.80
2023-01-09T16:45:36.549Z,1.83
2023-01-09T16:48:10.619Z,1.67
2023-01-09T16:50:44.277Z,1.85
2023-01-09T16:53:14.514Z,1.58
2023-01-09T16:55:41.758Z,1.70
2023-01-09T16:58:20.324Z,1.35
2023-01-09T17:00:54.202Z,1.23
2023-01-09T17:03:21.430Z,0.90
2023-01-09T17:06:02.178Z,1.23
2023-01-09T17:08:31.242Z,1.25
2023-01-09T17:10:58.534Z,0.98
2023-01-09T17:13:32.275Z,1.50
2023-01-09T17:16:06.566Z,1.05
2023-01-09T17:18:47.259Z,1.67
2023-01-09T17:21:18.709Z,1.23
2023-01-09T17:23:45.971Z,1.10
2023-01-09T17:26:45.363Z,1.10
2023-01-09T17:29:12.611Z,1.00
2023-01-09T17:31:46.323Z,0.95
2023-01-09T17:34:13.573Z,1.20
2023-01-09T17:36:40.804Z,1.25
2023-01-09T17:39:14.217Z,0.88
2023-01-09T17:41:41.765Z,0.90
2023-01-09T17:46:43.554Z,1.17
2023-01-09T17:49:22.375Z,1.23
2023-01-09T17:51:56.157Z,1.08
2023-01-09T17:54:30.295Z,1.40
2023-01-09T17:56:59.222Z,1.15
2023-01-09T17:59:27.588Z,1.33
2023-01-09T18:02:01.291Z,1.48
2023-01-09T18:04:28.485Z,1.38
2023-01-09T18:07:02.382Z,33.03
2023-01-09T18:09:29.587Z,3.40
2023-01-09T18:11:56.671Z,11.57
2023-01-09T18:14:30.231Z,34.53
2023-01-09T18:17:05.426Z,13.35
2023-01-09T18:19:39.349Z,8.82
2023-01-09T18:22:06.635Z,13.25
2023-01-09T18:24:40.330Z,22.42
2023-01-09T18:27:07.623Z,28.58
2023-01-09T18:29:41.273Z,8.35
2023-01-09T18:32:08.839Z,16.15
2023-01-09T18:34:42.297Z,6.97
2023-01-09T18:37:10.167Z,6.20
2023-01-09T18:39:37.322Z,4.63
2023-01-09T18:42:11.233Z,4.00
2023-01-09T18:44:38.430Z,3.22
2023-01-09T18:47:12.276Z,3.63
2023-01-09T18:49:39.500Z,4.57
2023-01-09T18:52:13.361Z,4.70
2023-01-09T18:54:42.597Z,3.13
2023-01-09T18:57:09.749Z,4.90
2023-01-09T18:59:43.260Z,3.65
2023-01-09T19:02:18.893Z,3.65
2023-01-09T19:04:52.281Z,7.22
2023-01-09T19:07:19.623Z,9.80
2023-01-09T19:09:47.809Z,6.07
2023-01-09T19:12:21.394Z,6.75
2023-01-09T19:15:08.171Z,5.82
2023-01-09T19:17:42.416Z,6.70
2023-01-09T19:20:09.871Z,4.75
2023-01-09T19:22:36.995Z,4.20
2023-01-09T19:25:11.244Z,5.50
2023-01-09T19:27:38.399Z,5.05
2023-01-09T19:30:12.481Z,4.55
2023-01-09T19:32:40.339Z,4.05
2023-01-09T19:35:07.675Z,4.45
2023-01-09T19:37:42.391Z,5.80
2023-01-09T19:40:10.114Z,4.72
2023-01-09T19:42:37.290Z,5.22
2023-01-09T19:45:11.361Z,4.43
2023-01-09T19:47:38.569Z,7.95
2023-01-09T19:50:15.384Z,7.57
2023-01-09T19:52:43.317Z,8.05
2023-01-09T19:55:13.551Z,7.38
2023-01-09T19:57:48.289Z,6.90
2023-01-09T20:00:15.618Z,7.22
2023-01-09T20:02:49.430Z,7.90
2023-01-09T20:05:16.928Z,7.10
2023-01-09T20:10:18.372Z,7.38
2023-01-09T20:12:45.716Z,7.28
2023-01-09T20:15:21.283Z,7.57
2023-01-09T20:17:55.461Z,8.93
2023-01-09T20:20:29.395Z,8.20
2023-01-09T20:22:56.622Z,9.30
2023-01-09T20:25:23.756Z,8.48
2023-01-09T20:27:57.275Z,9.13
2023-01-09T20:30:24.530Z,8.80
2023-01-09T20:33:00.156Z,11.23
2023-01-09T20:35:27.792Z,10.73
2023-01-09T20:40:28.400Z,8.90
2023-01-09T20:42:55.641Z,11.23
2023-01-09T20:45:22.755Z,11.20
2023-01-09T20:47:57.288Z,11.68
2023-01-09T20:50:24.489Z,11.57
2023-01-09T20:52:58.306Z,12.38
2023-01-09T20:55:25.624Z,12.05
2023-01-09T20:57:52.718Z,12.52
2023-01-09T21:00:27.440Z,14.27
2023-01-09T21:02:54.761Z,12.55
2023-01-09T21:05:21.867Z,14.15
2023-01-09T21:07:55.265Z,12.48
2023-01-09T21:10:22.612Z,15.15
2023-01-09T21:58:28.317Z,17.13
2023-01-09T22:01:07.391Z,19.95
2023-01-09T22:03:34.726Z,17.38
2023-01-09T22:06:05.282Z,20.90
2023-01-09T22:08:39.368Z,20.13
2023-01-09T22:11:06.599Z,19.80
2023-01-09T22:13:40.340Z,19.73
2023-01-09T22:16:08.685Z,19.00
2023-01-09T22:18:36.497Z,19.23
2023-01-09T22:21:10.294Z,21.65
2023-01-09T22:23:37.483Z,18.52
2023-01-09T22:26:15.325Z,21.15
2023-01-09T22:28:42.694Z,22.63
2023-01-09T22:31:10.845Z,20.85
2023-01-09T22:33:45.371Z,22.98
2023-01-09T22:36:12.687Z,21.75
2023-01-09T22:38:46.423Z,20.33
2023-01-09T22:41:13.820Z,18.60
2023-01-09T22:43:41.132Z,19.35
2023-01-09T22:46:15.399Z,20.38
2023-01-09T22:48:42.660Z,22.40
2023-01-09T22:51:21.377Z,19.10
2023-01-09T22:53:48.648Z,20.45
2023-01-09T22:56:36.492Z,18.35
2023-01-09T22:59:03.712Z,16.20
2023-01-09T23:01:30.888Z,17.25
2023-01-09T23:04:04.429Z,17.90
2023-01-09T23:06:31.652Z,20.23
2023-01-09T23:09:05.396Z,17.88
2023-01-09T23:11:51.581Z,16.08
2023-01-09T23:14:25.408Z,18.02
2023-01-09T23:16:52.803Z,17.30
2023-01-09T23:19:26.409Z,20.58
2023-01-09T23:21:53.706Z,18.85
2023-01-09T23:24:20.881Z,18.95
2023-01-09T23:26:55.353Z,17.67
2023-01-09T23:29:23.026Z,14.77
2023-01-09T23:32:00.377Z,18.63
2023-01-09T23:34:27.708Z,18.23
2023-01-09T23:36:57.250Z,18.52
2023-01-09T23:39:31.330Z,23.95
2023-01-09T23:42:17.273Z,22.35
2023-01-09T23:44:51.476Z,22.10
2023-01-09T23:47:18.639Z,20.67
2023-01-09T23:49:45.805Z,17.33
2023-01-09T23:52:19.373Z,18.60
2023-01-09T23:54:46.528Z,18.38
2023-01-09T23:57:20.527Z,17.48
2023-01-09T23:59:47.669Z,18.88
